createdAt,value
2022-11-08T00:02:06.764Z,23.90
2022-11-08T00:05:28.553Z,20.90
2022-11-08T00:08:50.281Z,21.40
2022-11-08T00:12:12.009Z,21.60
2022-11-08T00:15:15.535Z,23.10
2022-11-08T00:18:19.241Z,20.10
2022-11-08T00:21:23.129Z,22.00
2022-11-08T00:24:27.175Z,20.40
2022-11-08T00:27:30.640Z,20.70
2022-11-08T00:30:34.141Z,20.90
2022-11-08T00:33:37.590Z,22.90
2022-11-08T00:36:40.990Z,22.60
2022-11-08T00:39:44.471Z,20.50
2022-11-08T00:42:47.889Z,21.10
2022-11-08T00:45:51.443Z,21.80
2022-11-08T00:48:54.945Z,19.60
2022-11-08T00:51:58.493Z,20.10
2022-11-08T00:55:01.750Z,19.30
2022-11-08T00:58:05.479Z,19.60
2022-11-08T01:01:14.779Z,17.00
2022-11-08T01:04:19.903Z,18.50
2022-11-08T01:07:23.327Z,21.10
2022-11-08T01:10:26.831Z,19.50
2022-11-08T01:13:30.678Z,21.70
2022-11-08T01:16:34.912Z,18.70
2022-11-08T01:19:38.293Z,23.10
2022-11-08T01:22:42.327Z,23.30
2022-11-08T01:25:48.065Z,22.70
2022-11-08T01:28:52.085Z,20.50
2022-11-08T01:31:55.586Z,25.40
2022-11-08T01:34:58.974Z,23.20
2022-11-08T01:38:03.866Z,23.60
2022-11-08T01:41:08.242Z,23.50
2022-11-08T01:44:16.532Z,24.60
2022-11-08T01:47:19.950Z,24.70
2022-11-08T01:50:23.816Z,22.90
2022-11-08T01:53:29.333Z,23.40
2022-11-08T01:56:33.027Z,23.80
2022-11-08T01:59:40.828Z,23.40
2022-11-08T02:02:47.350Z,20.80
2022-11-08T02:05:50.847Z,21.50
2022-11-08T02:08:54.606Z,20.90
2022-11-08T02:11:59.225Z,20.60
2022-11-08T02:15:02.805Z,19.20
2022-11-08T02:18:06.664Z,20.80
2022-11-08T02:21:14.766Z,21.00
2022-11-08T02:24:18.262Z,21.10
2022-11-08T02:27:21.707Z,21.70
2022-11-08T02:30:25.618Z,20.40
2022-11-08T02:33:29.118Z,20.60
2022-11-08T02:36:32.465Z,21.00
2022-11-08T02:39:35.916Z,20.50
2022-11-08T02:42:39.725Z,18.60
2022-11-08T02:45:43.170Z,18.90
2022-11-08T02:48:46.654Z,18.10
2022-11-08T02:51:51.328Z,17.00
2022-11-08T02:54:54.817Z,19.40
2022-11-08T02:57:58.305Z,21.00
2022-11-08T03:01:01.845Z,18.10
2022-11-08T03:04:06.313Z,21.30
2022-11-08T03:07:09.731Z,17.60
2022-11-08T03:10:14.047Z,20.20
2022-11-08T03:13:17.450Z,19.10
2022-11-08T03:16:21.004Z,19.30
2022-11-08T03:19:24.610Z,18.20
2022-11-08T03:22:28.050Z,16.30
2022-11-08T03:25:31.544Z,18.40
2022-11-08T03:28:35.111Z,19.20
2022-11-08T03:31:38.612Z,17.10
2022-11-08T03:34:42.169Z,17.00
2022-11-08T03:37:51.472Z,16.80
2022-11-08T03:40:54.953Z,16.90
2022-11-08T03:43:58.558Z,17.60
2022-11-08T03:47:02.296Z,15.10
2022-11-08T03:50:08.043Z,16.80
2022-11-08T03:53:11.460Z,15.20
2022-11-08T03:56:14.862Z,15.10
2022-11-08T03:59:18.297Z,14.60
2022-11-08T04:02:21.779Z,16.10
2022-11-08T04:05:25.320Z,14.60
2022-11-08T04:08:29.585Z,13.50
2022-11-08T04:11:51.165Z,15.30
2022-11-08T04:15:18.115Z,15.80
2022-11-08T04:18:39.949Z,13.60
2022-11-08T04:21:45.470Z,12.80
2022-11-08T04:24:48.998Z,13.90
2022-11-08T04:27:52.548Z,13.40
2022-11-08T04:30:58.302Z,13.80
2022-11-08T04:34:01.778Z,11.60
2022-11-08T04:37:05.138Z,12.90
2022-11-08T04:40:11.655Z,12.30
2022-11-08T04:43:15.442Z,15.50
2022-11-08T04:46:20.723Z,13.60
2022-11-08T04:49:24.177Z,13.10
2022-11-08T04:52:27.575Z,12.40
2022-11-08T04:55:31.281Z,12.70
2022-11-08T04:58:36.491Z,13.50
2022-11-08T05:01:40.052Z,13.80
2022-11-08T05:04:43.671Z,14.40
2022-11-08T05:07:47.117Z,15.20
2022-11-08T05:10:50.569Z,15.10
2022-11-08T05:13:54.133Z,15.50
2022-11-08T05:16:57.740Z,15.20
2022-11-08T05:20:19.363Z,14.00
2022-11-08T05:23:25.616Z,13.50
2022-11-08T05:26:29.729Z,14.30
2022-11-08T05:29:34.819Z,15.70
2022-11-08T05:32:39.871Z,13.20
2022-11-08T05:35:43.186Z,13.80
2022-11-08T05:38:46.823Z,13.10
2022-11-08T05:41:50.324Z,13.20
2022-11-08T05:44:53.666Z,12.70
2022-11-08T05:48:03.062Z,13.40
2022-11-08T05:51:07.307Z,13.70
2022-11-08T05:54:12.625Z,14.00
2022-11-08T05:57:19.868Z,12.90
2022-11-08T06:00:25.567Z,13.50
2022-11-08T06:03:29.647Z,14.30
2022-11-08T06:06:33.533Z,14.80
2022-11-08T06:09:36.961Z,15.80
2022-11-08T06:12:40.493Z,16.40
2022-11-08T06:15:43.995Z,15.10
2022-11-08T06:18:47.643Z,15.50
2022-11-08T06:21:51.084Z,14.80
2022-11-08T06:24:54.910Z,15.00
2022-11-08T06:28:00.603Z,13.70
2022-11-08T06:31:04.618Z,16.60
2022-11-08T06:34:08.362Z,17.40
2022-11-08T06:37:11.866Z,28.00
2022-11-08T06:40:15.692Z,26.00
2022-11-08T06:43:20.444Z,21.40
2022-11-08T06:46:24.059Z,25.20
2022-11-08T06:49:27.578Z,24.00
2022-11-08T06:52:31.029Z,20.20
2022-11-08T06:55:35.396Z,23.00
2022-11-08T06:58:38.855Z,19.20
2022-11-08T07:01:45.681Z,18.90
2022-11-08T07:04:49.540Z,21.60
2022-11-08T07:07:53.391Z,19.00
2022-11-08T07:10:56.853Z,18.70
2022-11-08T07:14:00.354Z,17.90
2022-11-08T07:17:03.849Z,17.70
2022-11-08T07:20:10.210Z,17.00
2022-11-08T07:26:17.535Z,18.10
2022-11-08T07:29:21.096Z,16.60
2022-11-08T07:32:24.678Z,16.60
2022-11-08T07:35:28.818Z,17.20
2022-11-08T07:38:32.279Z,17.90
2022-11-08T07:41:36.273Z,18.60
2022-11-08T07:44:39.815Z,14.50
2022-11-08T07:47:43.197Z,17.90
2022-11-08T07:50:47.534Z,15.40
2022-11-08T07:53:50.994Z,15.10
2022-11-08T07:56:54.493Z,14.60
2022-11-08T07:59:58.099Z,15.00
2022-11-08T08:03:02.598Z,17.00
2022-11-08T08:06:06.872Z,16.40
2022-11-08T08:09:10.375Z,15.60
2022-11-08T08:12:14.046Z,13.80
2022-11-08T08:15:17.710Z,13.30
2022-11-08T08:18:21.254Z,14.10
2022-11-08T08:21:24.756Z,14.10
2022-11-08T08:24:28.205Z,12.70
2022-11-08T08:27:31.455Z,11.90
2022-11-08T08:30:34.897Z,12.80
2022-11-08T08:33:38.610Z,13.10
2022-11-08T08:36:42.113Z,12.40
2022-11-08T08:39:46.066Z,14.10
2022-11-08T08:42:49.470Z,14.10
2022-11-08T08:45:53.791Z,13.20
2022-11-08T08:48:57.223Z,15.10
2022-11-08T08:52:00.714Z,13.90
2022-11-08T08:55:04.861Z,10.80
2022-11-08T08:58:08.311Z,9.50
2022-11-08T09:04:36.814Z,7.50
2022-11-08T09:07:40.905Z,6.20
2022-11-08T09:10:44.438Z,8.60
2022-11-08T09:13:47.938Z,8.40
2022-11-08T09:16:51.378Z,7.60
2022-11-08T09:19:57.349Z,7.10
2022-11-08T09:23:03.374Z,8.40
2022-11-08T09:26:07.322Z,8.90
2022-11-08T09:29:10.765Z,7.70
2022-11-08T09:32:14.268Z,8.80
2022-11-08T09:35:17.876Z,6.40
2022-11-08T09:38:22.416Z,5.20
2022-11-08T09:41:43.204Z,6.00
2022-11-08T09:45:02.780Z,7.60
2022-11-08T09:48:16.217Z,8.30
2022-11-08T09:51:22.952Z,10.70
2022-11-08T09:54:31.358Z,9.70
2022-11-08T09:57:45.831Z,8.50
2022-11-08T10:00:50.735Z,7.10
2022-11-08T10:03:57.608Z,7.60
2022-11-08T10:07:14.962Z,9.50
2022-11-08T10:10:48.582Z,9.70
2022-11-08T10:14:05.942Z,10.30
2022-11-08T10:17:31.107Z,8.30
2022-11-08T10:20:45.507Z,9.70
2022-11-08T10:23:57.729Z,9.30
2022-11-08T10:27:02.182Z,6.90
2022-11-08T10:30:26.430Z,7.20
2022-11-08T10:33:34.941Z,8.00
2022-11-08T10:36:41.188Z,8.20
2022-11-08T10:39:54.321Z,7.70
2022-11-08T10:43:09.366Z,9.20
2022-11-08T10:46:26.741Z,8.40
2022-11-08T10:49:32.397Z,8.00
2022-11-08T10:52:40.753Z,7.60
2022-11-08T10:55:50.409Z,8.60
2022-11-08T10:58:53.786Z,8.00
2022-11-08T11:01:57.945Z,11.50
2022-11-08T11:05:26.614Z,7.00
2022-11-08T11:08:30.698Z,6.20
2022-11-08T11:11:37.980Z,7.50
2022-11-08T11:14:41.507Z,6.80
2022-11-08T11:17:47.143Z,7.10
2022-11-08T11:21:07.104Z,7.60
2022-11-08T11:24:19.241Z,8.50
2022-11-08T11:27:29.057Z,8.20
2022-11-08T11:30:33.945Z,8.90
2022-11-08T11:33:45.115Z,8.00
2022-11-08T11:36:55.129Z,9.00
2022-11-08T11:40:13.010Z,7.30
2022-11-08T11:43:23.219Z,7.30
2022-11-08T11:46:41.162Z,7.40
2022-11-08T11:49:47.072Z,8.30
2022-11-08T11:52:50.666Z,10.10
2022-11-08T11:56:12.397Z,8.00
2022-11-08T11:59:51.402Z,9.50
2022-11-08T12:03:22.281Z,6.60
2022-11-08T12:06:38.438Z,7.20
2022-11-08T12:09:59.382Z,5.90
2022-11-08T12:13:12.522Z,7.30
2022-11-08T12:16:23.246Z,6.60
2022-11-08T12:19:38.508Z,4.90
2022-11-08T12:22:54.713Z,7.20
2022-11-08T12:26:03.636Z,10.60
2022-11-08T12:29:23.526Z,9.70
2022-11-08T12:32:52.589Z,7.20
2022-11-08T12:36:11.484Z,6.70
2022-11-08T12:39:24.304Z,10.10
2022-11-08T12:42:53.281Z,9.80
2022-11-08T12:46:09.951Z,9.00
2022-11-08T12:49:27.544Z,7.40
2022-11-08T12:52:47.944Z,7.70
2022-11-08T12:55:55.362Z,11.10
2022-11-08T12:58:59.506Z,10.20
2022-11-08T13:02:04.909Z,8.30
2022-11-08T13:05:13.063Z,8.10
2022-11-08T13:08:25.418Z,7.30
2022-11-08T13:11:37.315Z,9.70
2022-11-08T13:14:41.629Z,9.30
2022-11-08T13:18:32.421Z,7.20
2022-11-08T13:21:38.613Z,8.20
2022-11-08T13:24:45.111Z,9.60
2022-11-08T13:27:49.873Z,8.70
2022-11-08T13:31:02.123Z,6.30
2022-11-08T13:34:19.754Z,7.20
2022-11-08T13:37:47.318Z,6.80
2022-11-08T13:41:15.859Z,9.30
2022-11-08T13:45:02.622Z,7.30
2022-11-08T13:48:34.885Z,7.40
2022-11-08T13:51:39.525Z,9.10
2022-11-08T13:54:53.175Z,7.30
2022-11-08T13:57:59.190Z,8.30
2022-11-08T14:04:24.121Z,8.90
2022-11-08T14:07:33.138Z,9.50
2022-11-08T14:10:47.639Z,8.70
2022-11-08T14:14:20.636Z,8.90
2022-11-08T14:17:33.966Z,9.40
2022-11-08T14:20:40.921Z,10.00
2022-11-08T14:23:47.466Z,9.20
2022-11-08T14:26:51.431Z,10.80
2022-11-08T14:30:00.698Z,10.70
2022-11-08T14:33:08.093Z,11.00
2022-11-08T14:36:16.587Z,10.50
2022-11-08T14:39:24.771Z,12.20
2022-11-08T14:42:28.080Z,9.30
2022-11-08T14:45:31.690Z,9.90
2022-11-08T14:48:35.140Z,9.30
2022-11-08T14:51:38.767Z,11.00
2022-11-08T14:54:44.414Z,13.50
2022-11-08T14:57:48.138Z,11.50
2022-11-08T15:00:51.922Z,9.60
2022-11-08T15:03:58.206Z,9.40
2022-11-08T15:07:01.636Z,10.30
2022-11-08T15:10:10.147Z,25.50
2022-11-08T15:13:13.694Z,13.30
2022-11-08T15:16:17.980Z,22.60
2022-11-08T15:19:30.100Z,12.50
2022-11-08T15:22:34.547Z,10.70
2022-11-08T15:25:38.834Z,10.90
2022-11-08T15:28:42.361Z,9.50
2022-11-08T15:31:56.977Z,12.20
2022-11-08T15:35:06.674Z,43.00
2022-11-08T15:38:30.279Z,10.70
2022-11-08T15:41:37.639Z,15.50
2022-11-08T15:45:02.037Z,12.80
2022-11-08T15:48:21.878Z,15.70
2022-11-08T15:51:25.558Z,15.20
2022-11-08T15:54:29.078Z,15.70
2022-11-08T15:57:32.840Z,16.10
2022-11-08T16:00:37.725Z,14.30
2022-11-08T16:03:41.324Z,13.80
2022-11-08T16:06:44.812Z,13.10
2022-11-08T16:09:48.290Z,10.70
2022-11-08T16:12:51.832Z,11.40
2022-11-08T16:15:55.785Z,12.70
2022-11-08T16:18:59.446Z,14.50
2022-11-08T16:22:06.840Z,13.00
2022-11-08T16:25:10.705Z,15.30
2022-11-08T16:28:19.993Z,12.00
2022-11-08T16:31:23.748Z,13.20
2022-11-08T16:34:27.293Z,12.20
2022-11-08T16:37:30.999Z,12.00
2022-11-08T16:40:34.434Z,13.60
2022-11-08T16:43:38.003Z,12.70
2022-11-08T16:46:42.336Z,16.20
2022-11-08T16:49:51.087Z,14.80
2022-11-08T16:52:54.961Z,16.70
2022-11-08T16:55:58.458Z,15.30
2022-11-08T16:59:01.902Z,13.40
2022-11-08T17:02:13.041Z,13.80
2022-11-08T17:05:18.143Z,17.40
2022-11-08T17:08:21.891Z,18.30
2022-11-08T17:11:25.669Z,16.60
2022-11-08T17:14:29.093Z,19.20
2022-11-08T17:17:32.602Z,16.80
2022-11-08T17:20:36.853Z,19.10
2022-11-08T17:23:40.417Z,21.90
2022-11-08T17:26:43.965Z,29.10
2022-11-08T17:29:47.477Z,18.70
2022-11-08T17:32:50.929Z,20.70
2022-11-08T17:35:54.423Z,85.00
2022-11-08T17:38:57.864Z,58.90
2022-11-08T17:42:01.209Z,27.20
2022-11-08T17:45:05.825Z,36.00
2022-11-08T17:48:09.351Z,44.30
2022-11-08T17:51:14.704Z,29.60
2022-11-08T17:54:18.756Z,120.50
2022-11-08T17:57:22.213Z,60.20
2022-11-08T18:00:25.688Z,25.20
2022-11-08T18:03:29.077Z,21.80
2022-11-08T18:06:32.866Z,20.20
2022-11-08T18:09:36.444Z,30.20
2022-11-08T18:12:39.871Z,26.70
2022-11-08T18:15:43.587Z,26.10
2022-11-08T18:18:48.195Z,59.70
2022-11-08T18:21:51.963Z,46.70
2022-11-08T18:24:55.515Z,63.50
2022-11-08T18:27:58.993Z,46.30
2022-11-08T18:31:07.433Z,35.20
2022-11-08T18:34:10.943Z,39.70
2022-11-08T18:37:14.331Z,36.90
2022-11-08T18:40:18.603Z,44.30
2022-11-08T18:43:22.038Z,36.60
2022-11-08T18:46:27.385Z,42.60
2022-11-08T18:49:30.956Z,26.10
2022-11-08T18:52:34.456Z,61.00
2022-11-08T18:55:37.764Z,57.20
2022-11-08T18:58:43.302Z,35.80
2022-11-08T19:01:46.803Z,16.20
2022-11-08T19:04:50.315Z,25.60
2022-11-08T19:07:53.804Z,32.70
2022-11-08T19:10:59.893Z,40.10
2022-11-08T19:14:03.776Z,34.90
2022-11-08T19:17:07.671Z,35.60
2022-11-08T19:20:12.770Z,35.90
2022-11-08T19:23:16.458Z,36.40
2022-11-08T19:26:21.591Z,42.00
2022-11-08T19:29:25.176Z,36.90
2022-11-08T19:32:28.700Z,30.30
2022-11-08T19:35:32.180Z,39.00
2022-11-08T19:38:36.450Z,38.60
2022-11-08T19:41:40.307Z,35.70
2022-11-08T19:44:43.808Z,36.50
2022-11-08T19:47:49.975Z,32.60
2022-11-08T19:50:54.494Z,29.70
2022-11-08T19:53:59.173Z,25.40
2022-11-08T19:57:04.776Z,28.80
2022-11-08T20:00:12.654Z,31.10
2022-11-08T20:03:15.946Z,29.50
2022-11-08T20:06:21.287Z,30.20
2022-11-08T20:09:30.037Z,32.80
2022-11-08T20:12:33.958Z,30.90
2022-11-08T20:15:37.461Z,29.80
2022-11-08T20:18:41.436Z,39.00
2022-11-08T20:21:45.574Z,37.50
2022-11-08T20:24:48.989Z,41.60
2022-11-08T20:27:52.638Z,39.00
2022-11-08T20:31:03.255Z,37.60
2022-11-08T20:34:10.028Z,40.40
2022-11-08T20:37:14.094Z,38.10
2022-11-08T20:40:17.894Z,26.60
2022-11-08T20:43:21.790Z,32.40
2022-11-08T20:46:25.448Z,24.90
2022-11-08T20:49:28.879Z,30.00
2022-11-08T20:52:32.380Z,23.20
2022-11-08T20:55:35.989Z,34.20
2022-11-08T20:58:40.612Z,26.40
2022-11-08T21:01:44.280Z,29.00
2022-11-08T21:04:47.822Z,33.20
2022-11-08T21:08:57.210Z,29.70
2022-11-08T21:11:15.197Z,34.70
2022-11-08T21:14:19.334Z,32.40
2022-11-08T21:17:23.084Z,31.30
2022-11-08T21:20:26.811Z,35.30
2022-11-08T21:23:31.693Z,33.30
2022-11-08T21:26:36.456Z,46.70
2022-11-08T21:29:40.509Z,25.80
2022-11-08T21:32:43.805Z,23.10
2022-11-08T21:35:50.138Z,27.00
2022-11-08T21:41:55.744Z,25.50
2022-11-08T21:44:58.836Z,36.40
2022-11-08T21:48:01.889Z,28.40
2022-11-08T21:51:05.724Z,21.60
2022-11-08T21:54:09.037Z,27.80
2022-11-08T21:57:12.125Z,28.00
2022-11-08T22:00:17.059Z,28.30
2022-11-08T22:03:20.253Z,26.40
2022-11-08T22:06:23.446Z,27.90
2022-11-08T22:09:26.539Z,24.80
2022-11-08T22:12:29.631Z,35.50
2022-11-08T22:15:32.826Z,18.90
2022-11-08T22:18:58.685Z,19.60
2022-11-08T22:21:59.080Z,17.80
2022-11-08T22:25:02.276Z,16.60
2022-11-08T22:28:06.089Z,19.80
2022-11-08T22:31:09.176Z,20.50
2022-11-08T22:34:12.604Z,18.70
2022-11-08T22:37:15.768Z,22.10
2022-11-08T22:40:19.274Z,25.20
2022-11-08T22:43:22.361Z,20.40
2022-11-08T22:46:25.556Z,18.90
2022-11-08T22:49:29.160Z,23.10
2022-11-08T22:52:32.563Z,23.80
2022-11-08T22:55:35.754Z,23.00
2022-11-08T22:58:39.382Z,19.10
2022-11-08T23:01:42.553Z,26.20
2022-11-08T23:04:45.644Z,24.30
2022-11-08T23:07:48.735Z,20.90
2022-11-08T23:11:10.464Z,24.90
2022-11-08T23:14:37.108Z,23.50
2022-11-08T23:17:40.918Z,22.30
2022-11-08T23:21:04.796Z,21.00
2022-11-08T23:24:21.520Z,21.90
2022-11-08T23:27:43.750Z,17.70
2022-11-08T23:31:05.577Z,23.70
2022-11-08T23:34:09.082Z,17.80
2022-11-08T23:37:12.785Z,16.80
2022-11-08T23:40:35.846Z,19.80
2022-11-08T23:43:57.676Z,22.50
2022-11-08T23:47:02.326Z,21.90
2022-11-08T23:50:07.856Z,18.00
2022-11-08T23:53:11.519Z,21.10
2022-11-08T23:56:20.995Z,31.20
2022-11-08T23:59:24.717Z,28.80
